createdAt,value
2023-08-17T00:01:43.104Z,83.14
2023-08-17T00:06:44.886Z,82.83
2023-08-17T00:11:46.602Z,84.34
2023-08-17T00:16:51.486Z,83.45
2023-08-17T00:21:53.818Z,81.43
2023-08-17T00:26:55.469Z,80.71
2023-08-17T00:31:59.059Z,81.47
2023-08-17T00:37:00.782Z,82.00
2023-08-17T00:42:02.464Z,82.89
2023-08-17T00:47:05.821Z,82.47
2023-08-17T00:52:07.763Z,81.32
2023-08-17T00:57:10.864Z,82.48
2023-08-17T01:02:12.867Z,83.05
2023-08-17T01:07:14.540Z,82.19
2023-08-17T01:12:39.135Z,82.07
2023-08-17T01:17:45.088Z,80.18
2023-08-17T01:22:50.073Z,82.15
2023-08-17T01:27:51.811Z,82.98
2023-08-17T01:33:04.740Z,82.68
2023-08-17T01:38:10.807Z,83.14
2023-08-17T01:43:13.791Z,82.44
2023-08-17T01:48:15.472Z,83.54
2023-08-17T01:53:17.175Z,83.78
2023-08-17T01:58:18.865Z,82.86
2023-08-17T02:03:20.918Z,83.49
2023-08-17T02:08:23.960Z,83.44
2023-08-17T02:13:25.925Z,83.69
2023-08-17T02:18:27.685Z,83.19
2023-08-17T02:23:29.447Z,84.95
2023-08-17T02:28:31.249Z,85.85
2023-08-17T02:33:34.717Z,83.38
2023-08-17T02:38:37.953Z,83.65
2023-08-17T02:43:39.581Z,84.76
2023-08-17T02:48:41.212Z,84.69
2023-08-17T02:53:42.925Z,84.41
2023-08-17T02:58:44.695Z,84.44
2023-08-17T03:03:46.427Z,83.62
2023-08-17T03:08:48.157Z,82.93
2023-08-17T03:13:49.933Z,86.29
2023-08-17T03:18:51.753Z,85.49
2023-08-17T03:23:53.714Z,87.04
2023-08-17T03:28:55.814Z,86.64
2023-08-17T03:33:57.897Z,86.74
2023-08-17T03:39:00.270Z,87.31
2023-08-17T03:44:02.305Z,86.60
2023-08-17T03:49:04.154Z,85.73
2023-08-17T03:54:05.928Z,86.83
2023-08-17T03:59:07.700Z,86.42
2023-08-17T04:04:09.631Z,85.94
2023-08-17T04:09:11.417Z,86.76
2023-08-17T04:14:13.509Z,87.71
2023-08-17T04:19:15.554Z,89.25
2023-08-17T04:24:17.389Z,87.35
2023-08-17T04:29:19.261Z,86.68
2023-08-17T04:34:23.678Z,87.65
2023-08-17T04:39:25.462Z,85.97
2023-08-17T04:44:27.326Z,85.76
2023-08-17T04:49:29.201Z,89.15
2023-08-17T04:54:31.115Z,87.92
2023-08-17T04:59:32.881Z,83.84
2023-08-17T05:04:35.807Z,85.51
2023-08-17T05:09:38.412Z,86.57
2023-08-17T05:14:40.651Z,85.99
2023-08-17T05:19:43.044Z,87.27
2023-08-17T05:24:44.893Z,87.75
2023-08-17T05:29:46.989Z,85.18
2023-08-17T05:34:48.932Z,85.30
2023-08-17T05:39:50.999Z,85.66
2023-08-17T05:44:52.615Z,83.29
2023-08-17T05:49:54.258Z,80.83
2023-08-17T05:54:55.969Z,81.63
2023-08-17T05:59:57.882Z,83.65
2023-08-17T06:04:59.661Z,82.96
2023-08-17T06:10:01.479Z,82.38
2023-08-17T06:15:04.361Z,78.14
2023-08-17T06:20:10.899Z,81.38
2023-08-17T06:25:12.619Z,81.98
2023-08-17T06:30:14.829Z,81.87
2023-08-17T06:35:16.526Z,81.44
2023-08-17T06:40:18.363Z,83.45
2023-08-17T06:45:20.161Z,81.90
2023-08-17T06:50:21.896Z,81.28
2023-08-17T06:55:25.979Z,81.56
2023-08-17T07:00:30.122Z,79.90
2023-08-17T07:05:31.765Z,77.80
2023-08-17T07:10:33.404Z,79.27
2023-08-17T07:15:35.078Z,77.34
2023-08-17T07:20:40.692Z,78.57
2023-08-17T07:25:42.345Z,77.64
2023-08-17T07:30:43.962Z,76.11
2023-08-17T07:35:45.579Z,75.36
2023-08-17T07:40:47.177Z,73.72
2023-08-17T07:45:59.766Z,75.79
2023-08-17T07:51:01.510Z,72.96
2023-08-17T07:56:03.348Z,71.34
2023-08-17T08:01:05.558Z,72.30
2023-08-17T08:06:09.803Z,74.34
2023-08-17T08:11:11.456Z,72.85
2023-08-17T08:16:13.244Z,73.00
2023-08-17T08:21:14.937Z,70.88
2023-08-17T08:26:16.646Z,70.56
2023-08-17T08:31:18.314Z,70.10
2023-08-17T08:36:20.185Z,69.37
2023-08-17T08:41:22.753Z,71.19
2023-08-17T08:46:27.838Z,69.76
2023-08-17T08:51:34.603Z,67.48
2023-08-17T08:56:39.835Z,68.73
2023-08-17T09:01:42.338Z,68.54
2023-08-17T09:06:44.921Z,67.46
2023-08-17T09:11:46.670Z,67.21
2023-08-17T09:16:48.450Z,68.75
2023-08-17T09:21:51.727Z,69.16
2023-08-17T09:26:55.606Z,67.54
2023-08-17T09:31:57.220Z,66.90
2023-08-17T09:37:07.495Z,66.22
2023-08-17T09:42:12.175Z,65.92
2023-08-17T09:47:13.925Z,65.18
2023-08-17T09:52:15.528Z,65.16
2023-08-17T09:57:22.755Z,63.92
2023-08-17T10:02:25.919Z,65.00
2023-08-17T10:07:33.709Z,64.59
2023-08-17T10:12:46.848Z,64.45
2023-08-17T10:17:59.696Z,64.38
2023-08-17T10:23:15.714Z,65.63
2023-08-17T10:28:18.302Z,64.12
2023-08-17T10:33:20.543Z,64.04
2023-08-17T10:38:22.265Z,63.46
2023-08-17T10:43:33.437Z,62.35
2023-08-17T10:48:37.801Z,61.65
2023-08-17T10:53:44.060Z,62.71
2023-08-17T10:58:45.791Z,62.87
2023-08-17T11:03:47.659Z,63.18
2023-08-17T11:08:59.752Z,61.91
2023-08-17T11:14:01.675Z,62.21
2023-08-17T11:19:04.034Z,61.48
2023-08-17T11:24:10.281Z,61.13
2023-08-17T11:29:12.482Z,60.05
2023-08-17T11:34:16.468Z,59.38
2023-08-17T11:39:22.030Z,59.59
2023-08-17T11:44:24.909Z,58.75
2023-08-17T11:49:30.001Z,58.48
2023-08-17T11:54:34.305Z,58.73
2023-08-17T11:59:36.057Z,58.89
2023-08-17T12:04:38.397Z,58.82
2023-08-17T12:09:41.046Z,58.44
2023-08-17T12:14:45.357Z,57.91
2023-08-17T12:19:55.501Z,58.46
2023-08-17T12:24:57.141Z,58.98
2023-08-17T12:29:58.788Z,59.50
2023-08-17T12:35:00.485Z,59.19
2023-08-17T12:40:02.296Z,59.52
2023-08-17T12:45:05.934Z,59.97
2023-08-17T12:50:08.306Z,59.00
2023-08-17T12:55:10.746Z,57.77
2023-08-17T13:00:13.064Z,57.37
2023-08-17T13:05:14.784Z,58.78
2023-08-17T13:10:16.551Z,59.56
2023-08-17T13:15:18.204Z,60.22
2023-08-17T13:20:20.104Z,60.74
2023-08-17T13:25:22.095Z,61.34
2023-08-17T13:30:23.890Z,61.65
2023-08-17T13:35:25.813Z,61.97
2023-08-17T13:40:27.433Z,62.18
2023-08-17T13:45:29.214Z,62.42
2023-08-17T13:50:30.921Z,62.54
2023-08-17T13:55:32.934Z,62.61
2023-08-17T14:00:34.580Z,63.05
2023-08-17T14:05:36.491Z,61.71
2023-08-17T14:10:40.143Z,61.09
2023-08-17T14:15:42.283Z,62.35
2023-08-17T14:20:44.047Z,62.78
2023-08-17T14:25:45.750Z,62.47
2023-08-17T14:30:52.571Z,62.71
2023-08-17T14:35:54.474Z,63.62
2023-08-17T14:40:56.162Z,63.72
2023-08-17T14:45:58.092Z,64.91
2023-08-17T14:50:59.827Z,65.18
2023-08-17T14:56:01.522Z,65.55
2023-08-17T15:01:04.301Z,66.03
2023-08-17T15:06:14.475Z,67.20
2023-08-17T15:11:25.789Z,65.19
2023-08-17T15:16:28.932Z,65.66
2023-08-17T15:21:30.793Z,64.89
2023-08-17T15:26:32.520Z,66.10
2023-08-17T15:31:34.201Z,66.41
2023-08-17T15:36:36.486Z,66.78
2023-08-17T15:41:41.585Z,66.43
2023-08-17T15:46:43.327Z,65.78
2023-08-17T15:51:45.665Z,67.86
2023-08-17T15:56:47.330Z,67.32
2023-08-17T16:01:49.046Z,67.82
2023-08-17T16:06:50.653Z,68.83
2023-08-17T16:11:52.291Z,68.96
2023-08-17T16:16:57.135Z,68.68
2023-08-17T16:21:59.344Z,68.94
2023-08-17T16:27:02.270Z,67.92
2023-08-17T16:37:10.011Z,68.96
2023-08-17T16:42:11.719Z,69.95
2023-08-17T16:47:13.446Z,71.82
2023-08-17T16:52:15.147Z,74.22
2023-08-17T16:57:16.991Z,74.96
2023-08-17T17:02:18.702Z,74.52
2023-08-17T17:07:20.331Z,76.52
2023-08-17T17:12:22.000Z,73.41
2023-08-17T17:17:24.002Z,72.55
2023-08-17T17:22:27.382Z,73.29
2023-08-17T17:27:29.168Z,77.96
2023-08-17T17:32:31.058Z,79.27
2023-08-17T17:37:33.860Z,74.76
2023-08-17T17:42:37.701Z,77.91
2023-08-17T17:47:39.358Z,79.33
2023-08-17T17:52:41.080Z,80.86
2023-08-17T17:57:42.968Z,82.51
2023-08-17T18:02:44.713Z,83.59
2023-08-17T18:07:46.473Z,80.99
2023-08-17T18:12:48.133Z,80.13
2023-08-17T18:17:49.835Z,81.84
2023-08-17T18:22:51.809Z,82.34
2023-08-17T18:27:53.714Z,77.77
2023-08-17T18:32:55.520Z,76.38
2023-08-17T18:37:57.629Z,77.34
2023-08-17T18:42:59.513Z,73.02
2023-08-17T18:48:01.295Z,79.41
2023-08-17T18:53:04.418Z,77.62
2023-08-17T18:58:06.182Z,80.95
2023-08-17T19:03:07.913Z,83.08
2023-08-17T19:08:09.616Z,84.43
2023-08-17T19:13:11.299Z,86.63
2023-08-17T19:18:12.999Z,88.02
2023-08-17T19:23:14.746Z,88.62
2023-08-17T19:28:16.974Z,89.50
2023-08-17T19:33:18.695Z,88.53
2023-08-17T19:38:20.405Z,87.95
2023-08-17T19:43:22.142Z,87.95
2023-08-17T19:48:23.852Z,89.29
2023-08-17T19:53:25.610Z,89.52
2023-08-17T19:58:27.232Z,89.29
2023-08-17T20:03:29.844Z,89.31
2023-08-17T20:08:31.650Z,89.94
2023-08-17T20:13:33.307Z,90.49
2023-08-17T20:18:35.062Z,91.23
2023-08-17T20:23:37.990Z,90.68
2023-08-17T20:28:40.245Z,90.08
2023-08-17T20:33:43.845Z,90.21
2023-08-17T20:38:46.922Z,89.53
2023-08-17T20:43:48.581Z,88.85
2023-08-17T20:48:50.854Z,88.85
2023-08-17T20:53:53.585Z,88.59
2023-08-17T20:58:55.696Z,88.16
2023-08-17T21:03:57.425Z,87.64
2023-08-17T21:08:59.101Z,87.56
2023-08-17T21:14:02.731Z,87.82
2023-08-17T21:19:04.583Z,87.45
2023-08-17T21:24:08.037Z,87.96
2023-08-17T21:29:09.772Z,88.21
2023-08-17T21:34:11.448Z,88.49
2023-08-17T21:39:14.434Z,88.57
2023-08-17T21:44:16.258Z,88.46
2023-08-17T21:49:17.921Z,88.46
2023-08-17T21:54:19.592Z,89.11
2023-08-17T21:59:22.259Z,89.53
2023-08-17T22:04:24.230Z,89.60
2023-08-17T22:09:25.999Z,86.79
2023-08-17T22:14:30.207Z,86.98
2023-08-17T22:19:31.901Z,87.46
2023-08-17T22:24:45.348Z,87.80
2023-08-17T22:29:52.405Z,86.88
2023-08-17T22:34:54.570Z,86.06
2023-08-17T22:39:56.245Z,86.01
2023-08-17T22:44:57.930Z,86.32
2023-08-17T22:49:59.913Z,85.93
2023-08-17T22:55:01.589Z,85.03
2023-08-17T23:00:04.834Z,84.68
2023-08-17T23:05:10.334Z,84.11
2023-08-17T23:10:12.904Z,85.15
2023-08-17T23:15:14.616Z,87.20
2023-08-17T23:20:16.286Z,87.86
2023-08-17T23:25:18.027Z,88.20
2023-08-17T23:30:19.853Z,88.40
2023-08-17T23:35:21.520Z,88.12
2023-08-17T23:40:24.315Z,88.80
2023-08-17T23:45:26.186Z,88.23
2023-08-17T23:50:27.826Z,88.09
2023-08-17T23:55:29.510Z,88.76
